createdAt,value
2022-09-25T00:00:38.665Z,25.50
2022-09-25T00:01:38.808Z,25.70
2022-09-25T00:02:38.701Z,25.80
2022-09-25T00:03:38.648Z,22.20
2022-09-25T00:04:39.470Z,23.00
2022-09-25T00:05:38.637Z,22.90
2022-09-25T00:06:39.528Z,25.60
2022-09-25T00:07:38.595Z,23.50
2022-09-25T00:08:38.576Z,24.60
2022-09-25T00:09:38.875Z,25.90
2022-09-25T00:10:38.915Z,24.60
2022-09-25T00:11:38.964Z,27.70
2022-09-25T00:12:38.525Z,25.60
2022-09-25T00:13:38.525Z,26.00
2022-09-25T00:14:38.485Z,25.40
2022-09-25T00:15:38.496Z,26.50
2022-09-25T00:16:39.407Z,22.90
2022-09-25T00:17:38.474Z,21.30
2022-09-25T00:18:38.524Z,16.20
2022-09-25T00:19:38.455Z,19.10
2022-09-25T00:20:38.417Z,17.60
2022-09-25T00:21:38.422Z,29.30
2022-09-25T00:22:38.537Z,21.10
2022-09-25T00:23:38.407Z,20.30
2022-09-25T00:24:38.385Z,21.30
2022-09-25T00:25:39.245Z,19.30
2022-09-25T00:26:39.157Z,17.50
2022-09-25T00:27:38.389Z,18.00
2022-09-25T00:28:38.345Z,22.90
2022-09-25T00:29:38.335Z,22.50
2022-09-25T00:30:38.343Z,24.50
2022-09-25T00:31:38.313Z,18.30
2022-09-25T00:32:38.628Z,26.30
2022-09-25T00:33:38.304Z,27.30
2022-09-25T00:34:38.275Z,25.20
2022-09-25T00:35:38.265Z,26.60
2022-09-25T00:36:38.236Z,25.50
2022-09-25T00:37:38.234Z,29.10
2022-09-25T00:38:39.017Z,27.00
2022-09-25T00:39:38.225Z,28.30
2022-09-25T00:40:38.238Z,31.00
2022-09-25T00:41:38.196Z,33.00
2022-09-25T00:42:38.415Z,22.10
2022-09-25T00:43:38.176Z,15.90
2022-09-25T00:44:38.246Z,25.90
2022-09-25T00:45:38.152Z,28.50
2022-09-25T00:46:38.200Z,28.00
2022-09-25T00:47:38.935Z,27.20
2022-09-25T00:48:38.155Z,26.60
2022-09-25T00:49:38.160Z,25.40
2022-09-25T00:50:38.187Z,23.30
2022-09-25T00:51:38.075Z,23.70
2022-09-25T00:52:38.065Z,23.80
2022-09-25T00:53:38.072Z,24.70
2022-09-25T00:54:38.038Z,27.00
2022-09-25T00:55:38.148Z,28.70
2022-09-25T00:56:38.005Z,24.40
2022-09-25T00:57:38.015Z,29.00
2022-09-25T00:58:37.986Z,28.50
2022-09-25T00:59:37.996Z,23.80
2022-09-25T01:00:38.696Z,28.80
2022-09-25T01:01:38.011Z,27.10
2022-09-25T01:02:38.027Z,24.90
2022-09-25T01:03:37.955Z,22.20
2022-09-25T01:04:37.923Z,21.90
2022-09-25T01:05:37.928Z,25.40
2022-09-25T01:06:37.914Z,28.50
2022-09-25T01:07:38.803Z,29.20
2022-09-25T01:08:37.904Z,31.00
2022-09-25T01:09:37.872Z,25.40
2022-09-25T01:10:37.862Z,26.50
2022-09-25T01:11:37.853Z,27.40
2022-09-25T01:12:37.825Z,23.80
2022-09-25T01:13:37.842Z,27.00
2022-09-25T01:14:37.813Z,24.90
2022-09-25T01:15:37.804Z,20.60
2022-09-25T01:16:37.832Z,27.00
2022-09-25T01:17:37.796Z,27.30
2022-09-25T01:18:37.758Z,30.70
2022-09-25T01:19:37.765Z,29.50
2022-09-25T01:20:37.735Z,30.80
2022-09-25T01:21:37.767Z,25.20
2022-09-25T01:22:37.715Z,28.20
2022-09-25T01:23:37.744Z,26.00
2022-09-25T01:24:38.495Z,28.70
2022-09-25T01:25:37.685Z,21.40
2022-09-25T01:26:37.665Z,26.00
2022-09-25T01:27:37.675Z,29.50
2022-09-25T01:28:37.675Z,30.40
2022-09-25T01:29:37.642Z,32.30
2022-09-25T01:30:37.649Z,32.60
2022-09-25T01:31:37.615Z,31.30
2022-09-25T01:32:37.594Z,30.30
2022-09-25T01:33:37.624Z,29.10
2022-09-25T01:34:37.564Z,24.90
2022-09-25T01:35:37.645Z,28.10
2022-09-25T01:36:37.544Z,33.90
2022-09-25T01:37:37.545Z,31.40
2022-09-25T01:38:37.526Z,31.50
2022-09-25T01:39:37.536Z,30.40
2022-09-25T01:40:37.543Z,30.10
2022-09-25T01:41:37.504Z,31.50
2022-09-25T01:42:37.485Z,29.90
2022-09-25T01:43:37.484Z,33.30
2022-09-25T01:44:37.475Z,33.90
2022-09-25T01:45:37.499Z,32.00
2022-09-25T01:46:37.445Z,33.50
2022-09-25T01:47:37.425Z,33.70
2022-09-25T01:48:38.194Z,32.60
2022-09-25T01:49:37.424Z,33.80
2022-09-25T01:50:37.547Z,36.10
2022-09-25T01:51:37.383Z,37.80
2022-09-25T01:52:37.383Z,32.50
2022-09-25T01:53:37.459Z,32.40
2022-09-25T01:54:37.363Z,34.90
2022-09-25T01:55:37.352Z,36.50
2022-09-25T01:56:37.335Z,33.50
2022-09-25T01:57:37.314Z,36.30
2022-09-25T01:58:37.324Z,34.80
2022-09-25T01:59:37.294Z,35.70
2022-09-25T02:00:37.309Z,35.70
2022-09-25T02:01:37.288Z,35.00
2022-09-25T02:02:37.322Z,33.40
2022-09-25T02:03:37.265Z,32.30
2022-09-25T02:04:37.267Z,33.30
2022-09-25T02:05:37.225Z,37.10
2022-09-25T02:06:37.295Z,32.90
2022-09-25T02:07:37.202Z,34.80
2022-09-25T02:08:37.216Z,34.70
2022-09-25T02:09:37.184Z,36.00
2022-09-25T02:10:37.185Z,39.70
2022-09-25T02:11:37.155Z,35.30
2022-09-25T02:12:37.163Z,35.00
2022-09-25T02:13:37.145Z,33.00
2022-09-25T02:14:37.144Z,33.90
2022-09-25T02:15:37.115Z,38.90
2022-09-25T02:16:37.142Z,33.00
2022-09-25T02:17:37.087Z,39.50
2022-09-25T02:18:37.092Z,30.80
2022-09-25T02:19:37.064Z,35.60
2022-09-25T02:20:37.065Z,34.10
2022-09-25T02:21:37.043Z,31.90
2022-09-25T02:22:37.042Z,36.20
2022-09-25T02:23:37.033Z,37.20
2022-09-25T02:24:37.043Z,33.10
2022-09-25T02:25:36.995Z,28.70
2022-09-25T02:26:36.995Z,24.10
2022-09-25T02:27:36.963Z,33.00
2022-09-25T02:28:36.967Z,35.70
2022-09-25T02:29:37.046Z,33.60
2022-09-25T02:30:36.988Z,32.00
2022-09-25T02:31:36.915Z,35.60
2022-09-25T02:32:36.923Z,37.30
2022-09-25T02:33:36.913Z,33.90
2022-09-25T02:34:36.903Z,33.00
2022-09-25T02:35:36.875Z,33.10
2022-09-25T02:36:36.885Z,33.60
2022-09-25T02:37:36.843Z,33.10
2022-09-25T02:38:36.843Z,33.30
2022-09-25T02:39:36.822Z,28.00
2022-09-25T02:40:36.869Z,30.00
2022-09-25T02:41:36.795Z,32.00
2022-09-25T02:42:36.805Z,29.90
2022-09-25T02:43:36.794Z,27.00
2022-09-25T02:44:36.776Z,29.00
2022-09-25T02:45:36.795Z,28.50
2022-09-25T02:46:36.762Z,28.10
2022-09-25T02:47:36.735Z,27.10
2022-09-25T02:48:36.733Z,24.30
2022-09-25T02:49:37.453Z,27.10
2022-09-25T02:50:36.704Z,28.00
2022-09-25T02:51:36.691Z,30.50
2022-09-25T02:52:36.706Z,26.70
2022-09-25T02:53:36.675Z,24.10
2022-09-25T02:54:36.665Z,24.40
2022-09-25T02:55:36.634Z,25.70
2022-09-25T02:56:36.640Z,24.80
2022-09-25T02:57:36.694Z,24.30
2022-09-25T02:58:36.622Z,21.40
2022-09-25T02:59:36.593Z,23.20
2022-09-25T03:00:36.593Z,23.40
2022-09-25T03:01:36.773Z,22.40
2022-09-25T03:02:36.622Z,21.40
2022-09-25T03:03:36.574Z,21.30
2022-09-25T03:04:36.549Z,21.40
2022-09-25T03:05:36.523Z,20.60
2022-09-25T03:06:36.522Z,17.50
2022-09-25T03:07:36.503Z,16.00
2022-09-25T03:08:36.504Z,18.80
2022-09-25T03:09:37.103Z,18.30
2022-09-25T03:10:36.493Z,18.40
2022-09-25T03:11:36.455Z,18.80
2022-09-25T03:12:36.453Z,20.10
2022-09-25T03:13:36.446Z,20.60
2022-09-25T03:14:36.441Z,19.40
2022-09-25T03:15:36.405Z,15.10
2022-09-25T03:16:36.496Z,17.00
2022-09-25T03:17:36.383Z,17.60
2022-09-25T03:18:36.393Z,16.80
2022-09-25T03:19:36.366Z,16.30
2022-09-25T03:20:36.605Z,18.70
2022-09-25T03:21:36.335Z,18.50
2022-09-25T03:22:36.334Z,17.60
2022-09-25T03:23:36.333Z,17.00
2022-09-25T03:24:36.324Z,18.10
2022-09-25T03:25:36.293Z,16.10
2022-09-25T03:26:36.292Z,20.40
2022-09-25T03:27:36.272Z,17.40
2022-09-25T03:28:36.302Z,16.80
2022-09-25T03:29:36.254Z,15.50
2022-09-25T03:30:37.135Z,17.30
2022-09-25T03:31:36.243Z,19.20
2022-09-25T03:32:36.226Z,19.90
2022-09-25T03:33:36.222Z,17.30
2022-09-25T03:34:36.203Z,17.20
2022-09-25T03:35:36.182Z,18.60
2022-09-25T03:36:36.282Z,18.70
2022-09-25T03:37:36.152Z,19.20
2022-09-25T03:38:36.154Z,17.20
2022-09-25T03:39:36.135Z,17.90
2022-09-25T03:40:36.229Z,17.40
2022-09-25T03:41:36.122Z,16.10
2022-09-25T03:42:36.147Z,17.90
2022-09-25T03:43:36.255Z,10.70
2022-09-25T03:44:36.093Z,14.80
2022-09-25T03:45:36.065Z,15.30
2022-09-25T03:46:36.126Z,16.60
2022-09-25T03:47:36.043Z,17.70
2022-09-25T03:48:36.051Z,16.20
2022-09-25T03:49:36.524Z,15.80
2022-09-25T03:50:36.747Z,16.10
2022-09-25T03:51:36.889Z,17.00
2022-09-25T03:52:36.013Z,17.00
2022-09-25T03:53:35.973Z,15.80
2022-09-25T03:54:35.972Z,17.00
2022-09-25T03:55:35.954Z,13.50
2022-09-25T03:56:35.965Z,16.10
2022-09-25T03:57:35.923Z,16.40
2022-09-25T03:58:36.091Z,14.60
2022-09-25T03:59:35.897Z,11.70
2022-09-25T04:00:35.907Z,12.70
2022-09-25T04:01:35.915Z,15.00
2022-09-25T04:02:35.914Z,15.10
2022-09-25T04:03:35.872Z,16.20
2022-09-25T04:04:35.867Z,14.90
2022-09-25T04:05:35.833Z,16.70
2022-09-25T04:06:35.856Z,15.50
2022-09-25T04:07:35.842Z,15.20
2022-09-25T04:08:36.525Z,16.00
2022-09-25T04:09:35.787Z,15.60
2022-09-25T04:10:36.591Z,16.00
2022-09-25T04:11:36.494Z,14.80
2022-09-25T04:12:35.852Z,15.70
2022-09-25T04:13:35.744Z,16.10
2022-09-25T04:14:35.734Z,15.50
2022-09-25T04:15:35.718Z,15.40
2022-09-25T04:16:36.578Z,15.80
2022-09-25T04:17:35.707Z,15.40
2022-09-25T04:18:35.705Z,17.40
2022-09-25T04:19:35.662Z,15.60
2022-09-25T04:20:35.670Z,14.10
2022-09-25T04:21:35.643Z,14.10
2022-09-25T04:22:36.462Z,14.60
2022-09-25T04:23:35.624Z,15.10
2022-09-25T04:24:35.853Z,14.30
2022-09-25T04:25:35.843Z,13.50
2022-09-25T04:26:35.613Z,13.80
2022-09-25T04:27:36.492Z,15.30
2022-09-25T04:28:35.663Z,15.80
2022-09-25T04:29:35.683Z,14.40
2022-09-25T04:30:35.600Z,15.40
2022-09-25T04:31:36.430Z,16.40
2022-09-25T04:32:36.273Z,15.60
2022-09-25T04:33:35.552Z,14.00
2022-09-25T04:34:36.339Z,14.10
2022-09-25T04:35:35.482Z,15.00
2022-09-25T04:36:35.763Z,15.30
2022-09-25T04:37:35.462Z,16.00
2022-09-25T04:38:36.235Z,14.90
2022-09-25T04:39:35.442Z,15.20
2022-09-25T04:40:35.486Z,16.70
2022-09-25T04:41:35.415Z,14.80
2022-09-25T04:42:35.859Z,15.70
2022-09-25T04:43:35.855Z,12.90
2022-09-25T04:44:35.411Z,15.70
2022-09-25T04:45:35.372Z,14.10
2022-09-25T04:46:35.452Z,12.50
2022-09-25T04:47:35.348Z,13.30
2022-09-25T04:48:35.341Z,12.60
2022-09-25T04:49:36.182Z,11.50
2022-09-25T04:50:35.334Z,14.40
2022-09-25T04:51:36.254Z,12.70
2022-09-25T04:52:36.141Z,13.80
2022-09-25T04:53:35.291Z,12.40
2022-09-25T04:54:36.206Z,12.90
2022-09-25T04:55:35.261Z,13.70
2022-09-25T04:56:36.013Z,13.20
2022-09-25T04:57:57.152Z,13.60
2022-09-25T04:58:36.232Z,12.00
2022-09-25T04:59:35.202Z,12.40
2022-09-25T05:00:35.212Z,14.60
2022-09-25T05:01:35.905Z,13.60
2022-09-25T05:02:36.129Z,14.20
2022-09-25T05:03:35.250Z,13.90
2022-09-25T05:04:35.162Z,13.30
2022-09-25T05:05:35.931Z,11.10
2022-09-25T05:06:35.874Z,12.40
2022-09-25T05:07:35.131Z,13.00
2022-09-25T05:08:35.890Z,15.50
2022-09-25T05:09:36.060Z,9.60
2022-09-25T05:10:35.952Z,10.60
2022-09-25T05:11:35.891Z,12.20
2022-09-25T05:12:35.787Z,12.50
2022-09-25T05:13:35.071Z,13.40
2022-09-25T05:14:35.068Z,11.90
2022-09-25T05:15:35.046Z,12.60
2022-09-25T05:16:35.915Z,13.50
2022-09-25T05:17:35.012Z,13.10
2022-09-25T05:18:35.472Z,12.50
2022-09-25T05:19:35.853Z,14.60
2022-09-25T05:20:35.762Z,11.90
2022-09-25T05:21:35.696Z,13.10
2022-09-25T05:22:35.822Z,11.00
2022-09-25T05:23:34.932Z,13.70
2022-09-25T05:24:34.943Z,13.90
2022-09-25T05:25:35.793Z,12.00
2022-09-25T05:26:34.913Z,9.30
2022-09-25T05:27:35.271Z,12.30
2022-09-25T05:28:35.762Z,12.90
2022-09-25T05:29:34.872Z,12.00
2022-09-25T05:30:35.411Z,13.30
2022-09-25T05:31:34.978Z,12.90
2022-09-25T05:32:34.862Z,14.00
2022-09-25T05:33:34.843Z,14.20
2022-09-25T05:34:35.113Z,16.00
2022-09-25T05:35:34.789Z,15.20
2022-09-25T05:36:35.311Z,17.10
2022-09-25T05:37:35.322Z,19.30
2022-09-25T05:38:35.350Z,16.60
2022-09-25T05:39:34.822Z,21.10
2022-09-25T05:40:34.809Z,20.30
2022-09-25T05:41:34.912Z,20.60
2022-09-25T05:42:34.956Z,21.20
2022-09-25T05:43:34.995Z,19.70
2022-09-25T05:44:34.710Z,20.50
2022-09-25T05:45:35.407Z,16.40
2022-09-25T05:46:34.724Z,15.70
2022-09-25T05:47:34.764Z,12.20
2022-09-25T05:48:34.779Z,14.90
2022-09-25T05:49:35.548Z,13.60
2022-09-25T05:50:35.436Z,11.80
2022-09-25T05:51:35.342Z,14.10
2022-09-25T05:52:35.505Z,11.10
2022-09-25T05:53:35.410Z,12.70
2022-09-25T05:54:35.314Z,12.70
2022-09-25T05:55:35.471Z,12.80
2022-09-25T05:56:35.371Z,9.90
2022-09-25T05:57:35.284Z,10.30
2022-09-25T05:58:34.544Z,11.50
2022-09-25T05:59:34.530Z,11.60
2022-09-25T06:00:35.254Z,13.30
2022-09-25T06:01:34.873Z,9.90
2022-09-25T06:02:34.874Z,7.00
2022-09-25T06:03:35.212Z,7.60
2022-09-25T06:04:35.141Z,9.40
2022-09-25T06:05:35.281Z,9.90
2022-09-25T06:06:35.182Z,11.10
2022-09-25T06:07:34.439Z,11.70
2022-09-25T06:08:34.411Z,10.00
2022-09-25T06:09:34.952Z,11.50
2022-09-25T06:10:34.741Z,13.70
2022-09-25T06:11:34.395Z,13.90
2022-09-25T06:12:34.992Z,11.30
2022-09-25T06:13:34.372Z,10.60
2022-09-25T06:14:35.184Z,10.60
2022-09-25T06:15:34.422Z,8.70
2022-09-25T06:16:34.543Z,8.80
2022-09-25T06:17:34.353Z,9.30
2022-09-25T06:18:34.564Z,9.40
2022-09-25T06:19:34.492Z,12.10
2022-09-25T06:20:34.641Z,9.80
2022-09-25T06:21:34.542Z,10.90
2022-09-25T06:22:34.254Z,9.70
2022-09-25T06:23:34.780Z,11.90
2022-09-25T06:24:34.820Z,10.90
2022-09-25T06:25:34.241Z,10.30
2022-09-25T06:26:34.202Z,10.90
2022-09-25T06:27:34.202Z,12.10
2022-09-25T06:28:35.122Z,11.80
2022-09-25T06:29:34.180Z,9.80
2022-09-25T06:30:34.264Z,10.80
2022-09-25T06:31:34.236Z,11.80
2022-09-25T06:32:34.153Z,11.00
2022-09-25T06:33:34.153Z,11.70
2022-09-25T06:34:35.051Z,8.10
2022-09-25T06:35:34.172Z,10.60
2022-09-25T06:36:34.132Z,11.70
2022-09-25T06:37:34.181Z,12.80
2022-09-25T06:38:34.082Z,13.70
2022-09-25T06:39:34.080Z,12.00
2022-09-25T06:40:34.101Z,12.00
2022-09-25T06:41:34.071Z,11.90
2022-09-25T06:42:34.019Z,10.50
2022-09-25T06:43:34.021Z,10.90
2022-09-25T06:44:34.884Z,13.70
2022-09-25T06:45:34.031Z,11.50
2022-09-25T06:46:34.106Z,11.60
2022-09-25T06:47:33.971Z,11.00
2022-09-25T06:48:33.955Z,11.50
2022-09-25T06:49:33.942Z,10.40
2022-09-25T06:50:34.800Z,8.60
2022-09-25T06:51:33.940Z,11.20
2022-09-25T06:52:33.909Z,10.10
2022-09-25T06:53:33.980Z,12.60
2022-09-25T06:54:34.672Z,12.30
2022-09-25T06:55:34.836Z,13.10
2022-09-25T06:56:33.863Z,14.10
2022-09-25T06:57:33.860Z,13.90
2022-09-25T06:58:33.831Z,10.20
2022-09-25T06:59:33.918Z,9.70
2022-09-25T07:00:33.821Z,9.90
2022-09-25T07:01:34.785Z,13.30
2022-09-25T07:02:33.900Z,10.90
2022-09-25T07:03:33.811Z,10.30
2022-09-25T07:04:33.916Z,7.60
2022-09-25T07:05:33.821Z,9.20
2022-09-25T07:06:33.851Z,9.20
2022-09-25T07:07:34.471Z,7.10
2022-09-25T07:08:33.814Z,9.70
2022-09-25T07:09:33.726Z,10.30
2022-09-25T07:10:33.709Z,10.30
2022-09-25T07:11:33.705Z,11.20
2022-09-25T07:12:34.484Z,11.30
2022-09-25T07:13:33.705Z,13.00
2022-09-25T07:14:33.673Z,11.30
2022-09-25T07:15:33.736Z,10.00
2022-09-25T07:16:34.459Z,9.10
2022-09-25T07:17:34.510Z,8.20
2022-09-25T07:18:33.764Z,10.20
2022-09-25T07:19:34.329Z,10.70
2022-09-25T07:20:33.581Z,6.00
2022-09-25T07:21:33.581Z,9.70
2022-09-25T07:22:33.551Z,7.50
2022-09-25T07:23:33.613Z,10.10
2022-09-25T07:24:34.351Z,7.70
2022-09-25T07:25:33.540Z,10.70
2022-09-25T07:26:33.511Z,8.70
2022-09-25T07:27:33.511Z,11.00
2022-09-25T07:28:34.234Z,9.90
2022-09-25T07:29:33.500Z,12.20
2022-09-25T07:30:33.461Z,8.80
2022-09-25T07:31:33.597Z,11.10
2022-09-25T07:32:33.449Z,8.20
2022-09-25T07:33:33.453Z,9.30
2022-09-25T07:34:33.741Z,10.30
2022-09-25T07:35:34.319Z,9.30
2022-09-25T07:36:33.556Z,7.70
2022-09-25T07:37:33.411Z,6.50
2022-09-25T07:38:33.380Z,10.00
2022-09-25T07:39:34.191Z,8.40
2022-09-25T07:40:33.457Z,7.90
2022-09-25T07:41:33.370Z,8.80
2022-09-25T07:42:33.372Z,8.80
2022-09-25T07:43:33.351Z,8.60
2022-09-25T07:44:38.372Z,7.80
2022-09-25T07:45:34.152Z,10.90
2022-09-25T07:46:34.159Z,10.70
2022-09-25T07:47:34.190Z,9.80
2022-09-25T07:48:33.306Z,11.10
2022-09-25T07:49:33.519Z,12.50
2022-09-25T07:50:34.160Z,9.60
2022-09-25T07:51:33.312Z,8.70
2022-09-25T07:52:33.301Z,8.90
2022-09-25T07:53:33.266Z,9.30
2022-09-25T07:54:33.222Z,8.80
2022-09-25T07:55:33.239Z,8.10
2022-09-25T07:56:33.239Z,10.20
2022-09-25T07:57:34.001Z,10.40
2022-09-25T07:58:33.161Z,8.10
2022-09-25T07:59:33.167Z,9.30
2022-09-25T08:00:33.154Z,8.40
2022-09-25T08:01:33.207Z,11.60
2022-09-25T08:02:33.183Z,7.90
2022-09-25T08:03:33.253Z,10.30
2022-09-25T08:04:33.089Z,9.10
2022-09-25T08:05:33.099Z,6.70
2022-09-25T08:06:33.089Z,6.80
2022-09-25T08:07:33.078Z,9.10
2022-09-25T08:08:33.050Z,9.10
2022-09-25T08:09:33.077Z,8.70
2022-09-25T08:10:33.030Z,5.90
2022-09-25T08:11:33.028Z,8.80
2022-09-25T08:12:33.011Z,7.40
2022-09-25T08:13:33.002Z,9.30
2022-09-25T08:14:32.990Z,6.90
2022-09-25T08:15:33.111Z,6.50
2022-09-25T08:16:33.713Z,6.60
2022-09-25T08:17:33.880Z,9.90
2022-09-25T08:18:32.940Z,8.90
2022-09-25T08:19:32.941Z,8.70
2022-09-25T08:20:32.921Z,8.70
2022-09-25T08:21:32.930Z,6.80
2022-09-25T08:22:32.899Z,6.80
2022-09-25T08:23:33.581Z,7.70
2022-09-25T08:24:32.871Z,7.40
2022-09-25T08:25:32.871Z,8.50
2022-09-25T08:26:33.142Z,7.40
2022-09-25T08:27:32.860Z,7.70
2022-09-25T08:28:32.829Z,7.40
2022-09-25T08:29:33.100Z,9.00
2022-09-25T08:30:32.810Z,6.80
2022-09-25T08:31:32.907Z,6.00
2022-09-25T08:32:32.791Z,3.10
2022-09-25T08:33:32.790Z,5.10
2022-09-25T08:34:41.174Z,6.10
2022-09-25T08:35:33.910Z,9.70
2022-09-25T08:36:32.750Z,6.60
2022-09-25T08:37:33.482Z,11.10
2022-09-25T08:38:32.723Z,10.10
2022-09-25T08:39:32.741Z,6.10
2022-09-25T08:40:32.769Z,7.10
2022-09-25T08:41:32.701Z,7.20
2022-09-25T08:42:32.671Z,9.40
2022-09-25T08:43:32.672Z,5.40
2022-09-25T08:44:32.650Z,10.90
2022-09-25T08:45:33.206Z,10.30
2022-09-25T08:46:32.681Z,7.00
2022-09-25T08:47:32.629Z,5.20
2022-09-25T08:48:32.601Z,4.10
2022-09-25T08:49:32.611Z,11.20
2022-09-25T08:50:32.582Z,6.30
2022-09-25T08:51:32.582Z,6.00
2022-09-25T08:52:32.549Z,6.20
2022-09-25T08:53:32.559Z,9.30
2022-09-25T08:54:32.531Z,5.90
2022-09-25T08:55:32.530Z,7.50
2022-09-25T08:56:32.623Z,4.90
2022-09-25T08:57:32.660Z,5.70
2022-09-25T08:58:32.480Z,4.80
2022-09-25T08:59:32.480Z,6.40
2022-09-25T09:00:32.461Z,7.00
2022-09-25T09:01:32.590Z,5.20
2022-09-25T09:02:32.477Z,5.50
2022-09-25T09:03:32.440Z,7.00
2022-09-25T09:04:32.410Z,5.80
2022-09-25T09:05:32.422Z,9.90
2022-09-25T09:06:32.393Z,8.40
2022-09-25T09:07:32.391Z,7.10
2022-09-25T09:08:32.372Z,6.70
2022-09-25T09:09:32.371Z,5.80
2022-09-25T09:10:32.341Z,6.20
2022-09-25T09:11:32.342Z,6.10
2022-09-25T09:12:32.324Z,4.70
2022-09-25T09:13:32.377Z,7.20
2022-09-25T09:14:33.240Z,6.50
2022-09-25T09:15:33.255Z,8.20
2022-09-25T09:16:32.350Z,5.90
2022-09-25T09:17:32.312Z,5.50
2022-09-25T09:18:32.655Z,6.90
2022-09-25T09:19:32.617Z,6.40
2022-09-25T09:20:32.431Z,6.40
2022-09-25T09:21:32.440Z,5.00
2022-09-25T09:22:34.550Z,7.00
2022-09-25T09:23:32.379Z,5.20
2022-09-25T09:24:32.343Z,4.40
2022-09-25T09:25:32.391Z,6.50
2022-09-25T09:26:32.352Z,5.00
2022-09-25T09:27:32.340Z,8.30
2022-09-25T09:28:32.191Z,9.20
2022-09-25T09:29:32.301Z,10.90
2022-09-25T09:30:32.300Z,7.20
2022-09-25T09:31:32.304Z,7.70
2022-09-25T09:32:32.250Z,8.40
2022-09-25T09:33:32.271Z,7.20
2022-09-25T09:34:53.578Z,7.90
2022-09-25T09:35:34.159Z,9.90
2022-09-25T09:36:32.211Z,8.30
2022-09-25T09:37:32.231Z,6.50
2022-09-25T09:38:32.398Z,7.10
2022-09-25T09:39:35.230Z,7.10
2022-09-25T09:40:32.174Z,8.60
2022-09-25T09:41:32.153Z,9.90
2022-09-25T09:42:32.120Z,5.60
2022-09-25T09:43:32.141Z,8.80
2022-09-25T09:44:32.100Z,9.80
2022-09-25T09:45:32.060Z,13.80
2022-09-25T09:46:32.319Z,7.60
2022-09-25T09:47:31.936Z,11.60
2022-09-25T09:48:31.921Z,8.00
2022-09-25T09:49:32.711Z,12.00
2022-09-25T09:50:31.932Z,15.20
2022-09-25T09:51:31.891Z,14.00
2022-09-25T09:52:31.864Z,8.10
2022-09-25T09:53:31.884Z,6.50
2022-09-25T09:54:31.833Z,12.30
2022-09-25T09:55:31.831Z,17.00
2022-09-25T09:56:31.793Z,13.50
2022-09-25T09:57:31.801Z,25.10
2022-09-25T09:58:32.621Z,30.30
2022-09-25T09:59:31.794Z,16.50
2022-09-25T10:00:31.762Z,14.30
2022-09-25T10:01:47.263Z,11.30
2022-09-25T10:02:32.884Z,10.20
2022-09-25T10:03:31.816Z,10.00
2022-09-25T10:04:31.704Z,11.10
2022-09-25T10:05:32.466Z,9.70
2022-09-25T10:06:31.710Z,6.10
2022-09-25T10:07:31.692Z,8.50
2022-09-25T10:08:31.661Z,7.30
2022-09-25T10:09:32.587Z,7.50
2022-09-25T10:10:31.699Z,7.80
2022-09-25T10:11:31.733Z,8.50
2022-09-25T10:12:31.612Z,6.70
2022-09-25T10:13:31.619Z,7.60
2022-09-25T10:14:31.603Z,3.80
2022-09-25T10:15:31.646Z,7.00
2022-09-25T10:16:31.677Z,6.50
2022-09-25T10:17:31.561Z,8.30
2022-09-25T10:18:32.264Z,6.80
2022-09-25T10:19:32.397Z,5.50
2022-09-25T10:20:32.031Z,8.20
2022-09-25T10:21:31.524Z,5.40
2022-09-25T10:22:31.513Z,5.50
2022-09-25T10:23:31.483Z,8.20
2022-09-25T10:24:31.523Z,7.50
2022-09-25T10:25:31.484Z,8.30
2022-09-25T10:26:31.495Z,6.80
2022-09-25T10:27:31.745Z,7.30
2022-09-25T10:28:31.451Z,9.60
2022-09-25T10:29:31.429Z,9.00
2022-09-25T10:30:31.436Z,8.70
2022-09-25T10:31:31.518Z,5.70
2022-09-25T10:32:31.431Z,7.50
2022-09-25T10:33:31.389Z,7.30
2022-09-25T10:34:31.392Z,5.80
2022-09-25T10:35:31.363Z,3.90
2022-09-25T10:36:31.368Z,5.40
2022-09-25T10:37:31.342Z,5.30
2022-09-25T10:38:31.363Z,7.00
2022-09-25T10:39:46.941Z,5.60
2022-09-25T10:40:32.373Z,6.30
2022-09-25T10:41:31.293Z,5.70
2022-09-25T10:42:31.294Z,11.10
2022-09-25T10:43:31.275Z,4.90
2022-09-25T10:44:31.272Z,7.70
2022-09-25T10:45:31.251Z,9.90
2022-09-25T10:46:31.289Z,6.40
2022-09-25T10:47:31.220Z,4.30
2022-09-25T10:48:31.255Z,5.30
2022-09-25T10:49:31.204Z,7.30
2022-09-25T10:50:31.205Z,4.80
2022-09-25T10:51:31.474Z,5.00
2022-09-25T10:52:31.185Z,3.60
2022-09-25T10:53:31.155Z,8.00
2022-09-25T10:54:31.154Z,5.70
2022-09-25T10:55:31.188Z,5.10
2022-09-25T10:56:31.163Z,9.90
2022-09-25T10:57:31.137Z,6.70
2022-09-25T10:58:31.286Z,4.40
2022-09-25T10:59:31.885Z,3.80
2022-09-25T11:00:31.104Z,7.60
2022-09-25T11:01:31.256Z,7.00
2022-09-25T11:02:31.094Z,5.00
2022-09-25T11:03:31.044Z,9.90
2022-09-25T11:04:31.054Z,3.90
2022-09-25T11:05:31.022Z,7.20
2022-09-25T11:06:31.013Z,9.60
2022-09-25T11:07:30.993Z,6.00
2022-09-25T11:08:31.033Z,6.10
2022-09-25T11:09:30.973Z,4.70
2022-09-25T11:10:31.604Z,3.60
2022-09-25T11:11:30.975Z,6.50
2022-09-25T11:12:30.953Z,5.80
2022-09-25T11:13:30.929Z,6.30
2022-09-25T11:14:30.938Z,4.10
2022-09-25T11:15:30.903Z,6.20
2022-09-25T11:16:31.829Z,5.50
2022-09-25T11:17:31.695Z,4.50
2022-09-25T11:18:30.883Z,5.50
2022-09-25T11:19:31.758Z,4.90
2022-09-25T11:20:30.905Z,7.40
2022-09-25T11:21:30.845Z,9.10
2022-09-25T11:22:31.729Z,4.50
2022-09-25T11:23:30.826Z,5.60
2022-09-25T11:24:30.835Z,6.70
2022-09-25T11:25:31.696Z,36.90
2022-09-25T11:26:30.830Z,9.50
2022-09-25T11:27:31.455Z,6.10
2022-09-25T11:28:31.227Z,4.00
2022-09-25T11:29:31.436Z,6.00
2022-09-25T11:30:31.555Z,4.60
2022-09-25T11:31:30.724Z,7.00
2022-09-25T11:32:30.744Z,8.10
2022-09-25T11:33:30.706Z,6.40
2022-09-25T11:34:31.611Z,6.50
2022-09-25T11:35:31.496Z,5.60
2022-09-25T11:36:30.686Z,6.10
2022-09-25T11:37:30.656Z,4.80
2022-09-25T11:38:31.466Z,11.30
2022-09-25T11:39:30.917Z,7.50
2022-09-25T11:40:30.705Z,4.10
2022-09-25T11:41:31.439Z,6.10
2022-09-25T11:42:31.345Z,6.40
2022-09-25T11:43:30.756Z,3.50
2022-09-25T11:44:31.405Z,3.80
2022-09-25T11:45:31.235Z,2.80
2022-09-25T11:46:30.652Z,5.40
2022-09-25T11:47:30.547Z,3.60
2022-09-25T11:48:30.677Z,7.30
2022-09-25T11:49:31.436Z,5.70
2022-09-25T11:50:31.354Z,4.90
2022-09-25T11:51:30.498Z,4.20
2022-09-25T11:52:30.508Z,8.00
2022-09-25T11:53:31.305Z,7.60
2022-09-25T11:54:34.147Z,4.10
2022-09-25T11:55:31.376Z,4.40
2022-09-25T11:56:33.031Z,6.10
2022-09-25T11:57:34.392Z,3.20
2022-09-25T11:58:30.563Z,3.90
2022-09-25T11:59:30.408Z,5.50
2022-09-25T12:00:31.148Z,5.70
2022-09-25T12:01:31.371Z,4.70
2022-09-25T12:02:31.280Z,3.50
2022-09-25T12:03:30.646Z,6.40
2022-09-25T12:04:30.367Z,4.10
2022-09-25T12:05:30.759Z,6.60
2022-09-25T12:06:30.463Z,3.70
2022-09-25T12:07:30.772Z,8.70
2022-09-25T12:08:30.777Z,8.20
2022-09-25T12:09:31.052Z,5.50
2022-09-25T12:10:30.289Z,4.10
2022-09-25T12:11:31.117Z,5.00
2022-09-25T12:12:30.316Z,5.00
2022-09-25T12:13:31.188Z,8.60
2022-09-25T12:14:30.248Z,7.00
2022-09-25T12:15:30.988Z,4.50
2022-09-25T12:16:30.940Z,9.60
2022-09-25T12:17:31.055Z,9.90
2022-09-25T12:18:34.144Z,8.20
2022-09-25T12:19:30.437Z,7.40
2022-09-25T12:20:30.198Z,4.50
2022-09-25T12:21:30.918Z,7.10
2022-09-25T12:22:30.870Z,5.40
2022-09-25T12:23:30.998Z,7.10
2022-09-25T12:24:33.188Z,4.10
2022-09-25T12:25:30.104Z,3.50
2022-09-25T12:26:30.959Z,4.30
2022-09-25T12:27:30.101Z,3.80
2022-09-25T12:28:30.790Z,6.80
2022-09-25T12:29:30.300Z,3.30
2022-09-25T12:30:30.149Z,6.40
2022-09-25T12:31:31.012Z,4.50
2022-09-25T12:32:30.043Z,6.50
2022-09-25T12:33:30.020Z,4.90
2022-09-25T12:34:30.029Z,4.30
2022-09-25T12:35:30.044Z,4.10
2022-09-25T12:36:29.987Z,4.00
2022-09-25T12:37:29.979Z,2.90
2022-09-25T12:38:29.974Z,5.60
2022-09-25T12:39:30.728Z,6.20
2022-09-25T12:40:30.012Z,4.80
2022-09-25T12:41:30.799Z,5.10
2022-09-25T12:42:30.703Z,6.80
2022-09-25T12:43:29.922Z,4.80
2022-09-25T12:44:30.000Z,3.90
2022-09-25T12:45:29.879Z,4.40
2022-09-25T12:46:30.836Z,4.90
2022-09-25T12:47:29.900Z,2.20
2022-09-25T12:48:29.858Z,5.80
2022-09-25T12:49:29.830Z,4.80
2022-09-25T12:50:30.699Z,6.20
2022-09-25T12:51:29.809Z,3.70
2022-09-25T12:52:29.810Z,3.10
2022-09-25T12:53:30.691Z,2.90
2022-09-25T12:54:29.802Z,4.80
2022-09-25T12:55:30.074Z,4.00
2022-09-25T12:56:30.083Z,5.80
2022-09-25T12:57:29.979Z,4.60
2022-09-25T12:58:29.993Z,2.60
2022-09-25T12:59:29.711Z,3.00
2022-09-25T13:00:29.729Z,5.70
2022-09-25T13:01:29.790Z,5.60
2022-09-25T13:02:29.798Z,3.70
2022-09-25T13:03:30.472Z,4.60